createdAt,value
2023-03-23T00:01:57.556Z,0
2023-03-23T00:07:01.675Z,0
2023-03-23T00:12:05.840Z,0
2023-03-23T00:17:10.035Z,0
2023-03-23T00:22:14.201Z,0
2023-03-23T00:27:18.356Z,0
2023-03-23T00:32:22.533Z,0
2023-03-23T00:37:24.751Z,0
2023-03-23T00:42:28.954Z,0
2023-03-23T00:47:31.256Z,0
2023-03-23T00:52:35.392Z,0
2023-03-23T00:57:39.551Z,0
2023-03-23T01:02:43.712Z,0
2023-03-23T01:07:47.882Z,0
2023-03-23T01:12:52.002Z,0
2023-03-23T01:17:56.189Z,0
2023-03-23T01:23:00.573Z,0
2023-03-23T01:28:04.506Z,0
2023-03-23T01:33:08.649Z,0
2023-03-23T01:38:12.812Z,0
2023-03-23T01:43:16.978Z,0
2023-03-23T01:48:21.173Z,0
2023-03-23T01:53:25.302Z,0
2023-03-23T01:58:29.453Z,0
2023-03-23T02:03:33.614Z,0
2023-03-23T02:08:37.802Z,0
2023-03-23T02:13:41.918Z,0
2023-03-23T02:18:46.101Z,0
2023-03-23T02:23:50.249Z,0
2023-03-23T02:28:54.451Z,0
2023-03-23T02:33:56.706Z,0
2023-03-23T02:39:00.865Z,0
2023-03-23T02:44:05.035Z,0
2023-03-23T02:49:07.309Z,0
2023-03-23T02:54:11.511Z,0
2023-03-23T02:59:15.607Z,0
2023-03-23T03:04:19.750Z,0
2023-03-23T03:09:23.951Z,0
2023-03-23T03:14:28.096Z,0
2023-03-23T03:19:32.661Z,0
2023-03-23T03:24:36.430Z,0
2023-03-23T03:29:40.621Z,0
2023-03-23T03:34:44.766Z,0
2023-03-23T03:39:48.888Z,0
2023-03-23T03:44:53.086Z,0
2023-03-23T03:49:57.218Z,0
2023-03-23T03:55:01.359Z,0
2023-03-23T04:00:05.558Z,0
2023-03-23T04:05:09.701Z,0
2023-03-23T04:10:13.864Z,0
2023-03-23T04:15:18.025Z,0
2023-03-23T04:20:32.083Z,0
2023-03-23T04:25:26.346Z,0
2023-03-23T04:30:30.525Z,0
2023-03-23T04:35:32.861Z,0
2023-03-23T04:40:36.938Z,0
2023-03-23T04:45:39.652Z,0
2023-03-23T04:50:43.373Z,0
2023-03-23T04:55:47.541Z,0
2023-03-23T05:00:51.738Z,0
2023-03-23T05:05:55.841Z,0
2023-03-23T05:11:00.018Z,1
2023-03-23T05:16:04.193Z,4
2023-03-23T05:21:08.404Z,12
2023-03-23T05:26:12.513Z,18
2023-03-23T05:31:16.648Z,28
2023-03-23T05:36:20.865Z,50
2023-03-23T05:41:25.213Z,99
2023-03-23T05:46:29.120Z,154
2023-03-23T05:51:33.303Z,326
2023-03-23T05:56:37.481Z,305
2023-03-23T06:01:41.695Z,277
2023-03-23T06:11:49.920Z,423
2023-03-23T06:16:54.077Z,653
2023-03-23T06:21:58.254Z,898
2023-03-23T06:27:02.397Z,879
2023-03-23T06:32:06.587Z,1605
2023-03-23T06:37:08.865Z,1871
2023-03-23T06:42:13.026Z,1342
2023-03-23T06:47:15.269Z,1630
2023-03-23T06:52:19.455Z,2456
2023-03-23T06:57:23.608Z,2469
2023-03-23T07:02:27.776Z,2756
2023-03-23T07:07:31.941Z,3536
2023-03-23T07:12:36.082Z,3915
2023-03-23T07:17:40.239Z,4260
2023-03-23T07:22:44.397Z,3630
2023-03-23T07:27:48.563Z,3640
2023-03-23T07:32:52.751Z,3860
2023-03-23T07:37:56.917Z,4780
2023-03-23T07:43:01.068Z,5175
2023-03-23T07:48:09.780Z,4665
2023-03-23T07:53:09.365Z,4190
2023-03-23T07:58:13.587Z,3725
2023-03-23T08:03:17.732Z,4841
2023-03-23T08:08:21.852Z,4980
2023-03-23T08:13:26.109Z,5406
2023-03-23T08:18:30.194Z,5109
2023-03-23T08:23:34.348Z,5026
2023-03-23T08:28:38.480Z,5660
2023-03-23T08:33:40.786Z,6325
2023-03-23T08:38:44.924Z,5125
2023-03-23T08:43:47.221Z,6540
2023-03-23T08:53:55.550Z,7064
2023-03-23T08:58:59.795Z,7275
2023-03-23T09:04:03.839Z,6760
2023-03-23T09:09:08.003Z,6551
2023-03-23T09:14:12.168Z,8160
2023-03-23T09:19:16.312Z,9590
2023-03-23T09:24:20.509Z,7398
2023-03-23T09:29:24.653Z,7817
2023-03-23T09:34:28.834Z,6252
2023-03-23T09:39:33.011Z,6720
2023-03-23T09:44:37.122Z,7474
2023-03-23T09:49:42.376Z,6740
2023-03-23T09:54:45.458Z,6592
2023-03-23T09:59:49.601Z,6733
2023-03-23T10:04:53.754Z,7260
2023-03-23T10:09:57.928Z,6508
2023-03-23T10:15:02.094Z,6793
2023-03-23T10:20:06.280Z,4652
2023-03-23T10:25:10.425Z,6017
2023-03-23T10:30:14.630Z,3761
2023-03-23T10:35:16.889Z,2815
2023-03-23T10:40:22.174Z,3215
2023-03-23T10:45:25.174Z,8371
2023-03-23T10:50:29.302Z,3010
2023-03-23T10:55:31.611Z,4373
2023-03-23T11:05:39.909Z,6033
2023-03-23T11:10:44.089Z,7180
2023-03-23T11:15:48.222Z,6830
2023-03-23T11:20:52.381Z,4185
2023-03-23T11:25:57.009Z,2702
2023-03-23T11:31:00.714Z,2859
2023-03-23T11:36:04.913Z,3574
2023-03-23T11:41:09.080Z,3589
2023-03-23T11:46:13.202Z,5267
2023-03-23T11:51:17.377Z,4204
2023-03-23T11:56:21.554Z,4565
2023-03-23T12:01:25.686Z,7219
2023-03-23T12:06:29.822Z,7632
2023-03-23T12:11:34.044Z,7494
2023-03-23T12:16:38.158Z,6993
2023-03-23T12:21:42.334Z,7185
2023-03-23T12:26:46.468Z,7055
2023-03-23T12:31:50.646Z,8258
2023-03-23T12:36:54.845Z,3918
2023-03-23T12:41:58.959Z,3533
2023-03-23T12:47:01.253Z,2246
2023-03-23T12:52:05.410Z,2166
2023-03-23T12:57:09.559Z,3240
2023-03-23T13:02:13.732Z,3685
2023-03-23T13:07:16.018Z,4664
2023-03-23T13:12:20.188Z,4201
2023-03-23T13:17:24.328Z,4612
2023-03-23T13:22:28.482Z,3391
2023-03-23T13:27:32.659Z,3063
2023-03-23T13:32:40.910Z,5790
2023-03-23T13:37:40.937Z,11311
2023-03-23T13:42:45.101Z,10869
2023-03-23T13:47:49.278Z,8290
2023-03-23T13:52:53.498Z,8295
2023-03-23T13:57:57.663Z,7512
2023-03-23T14:03:01.941Z,4615
2023-03-23T14:08:05.942Z,3880
2023-03-23T14:13:10.116Z,5762
2023-03-23T14:18:14.240Z,5489
2023-03-23T14:23:18.667Z,6987
2023-03-23T14:28:22.555Z,5696
2023-03-23T14:33:26.700Z,4663
2023-03-23T14:38:30.881Z,4205
2023-03-23T14:43:35.085Z,6648
2023-03-23T14:48:39.219Z,5783
2023-03-23T14:53:41.457Z,5569
2023-03-23T14:58:45.653Z,3040
2023-03-23T15:03:50.097Z,2990
2023-03-23T15:08:52.051Z,3825
2023-03-23T15:13:56.241Z,4463
2023-03-23T15:19:00.402Z,6933
2023-03-23T15:24:04.539Z,7184
2023-03-23T15:29:08.715Z,4854
2023-03-23T15:34:12.874Z,9153
2023-03-23T15:39:17.053Z,4610
2023-03-23T15:44:21.183Z,5200
2023-03-23T15:49:25.382Z,7800
2023-03-23T15:54:29.527Z,13018
2023-03-23T15:59:33.713Z,10197
2023-03-23T16:04:37.855Z,8430
2023-03-23T16:09:42.032Z,6621
2023-03-23T16:14:44.273Z,5954
2023-03-23T16:19:48.441Z,5680
2023-03-23T16:24:52.602Z,5440
2023-03-23T16:30:03.895Z,5115
2023-03-23T16:35:00.924Z,5570
2023-03-23T16:40:05.035Z,5465
2023-03-23T16:45:09.229Z,4165
2023-03-23T16:50:11.493Z,3485
2023-03-23T16:55:15.684Z,2678
2023-03-23T17:00:19.787Z,2315
2023-03-23T17:05:23.988Z,1950
2023-03-23T17:10:28.140Z,1686
2023-03-23T17:15:32.298Z,1550
2023-03-23T17:20:36.437Z,1268
2023-03-23T17:25:40.582Z,1228
2023-03-23T17:30:44.763Z,845
2023-03-23T17:35:49.064Z,575
2023-03-23T17:40:53.110Z,310
2023-03-23T17:45:57.248Z,97
2023-03-23T17:51:01.430Z,40
2023-03-23T17:56:05.601Z,20
2023-03-23T18:01:09.764Z,10
2023-03-23T18:06:13.880Z,5
2023-03-23T18:11:18.053Z,5
2023-03-23T18:16:22.212Z,2
2023-03-23T18:21:26.388Z,1
2023-03-23T18:26:30.516Z,0
2023-03-23T18:31:34.747Z,0
2023-03-23T18:36:36.990Z,0
2023-03-23T18:41:41.133Z,0
2023-03-23T18:46:43.412Z,0
2023-03-23T18:51:47.549Z,0
2023-03-23T18:56:49.963Z,0
2023-03-23T19:01:54.093Z,0
2023-03-23T19:06:58.178Z,0
2023-03-23T19:12:02.345Z,0
2023-03-23T19:17:06.517Z,0
2023-03-23T19:22:10.638Z,0
2023-03-23T19:27:15.535Z,0
2023-03-23T19:32:18.958Z,0
2023-03-23T19:37:23.370Z,0
2023-03-23T19:42:27.297Z,0
2023-03-23T19:47:31.480Z,0
2023-03-23T19:52:35.715Z,0
2023-03-23T19:57:39.764Z,0
2023-03-23T20:02:43.970Z,0
2023-03-23T20:07:51.732Z,0
2023-03-23T20:12:52.249Z,0
2023-03-23T20:23:00.606Z,0
2023-03-23T20:28:04.784Z,0
2023-03-23T20:33:08.926Z,0
2023-03-23T20:38:13.071Z,0
2023-03-23T20:43:15.338Z,0
2023-03-23T20:48:19.486Z,0
2023-03-23T20:53:21.765Z,0
2023-03-23T20:58:25.939Z,0
2023-03-23T21:03:30.237Z,0
2023-03-23T21:08:34.254Z,0
2023-03-23T21:13:38.416Z,0
2023-03-23T21:18:42.554Z,0
2023-03-23T21:23:46.799Z,0
2023-03-23T21:28:50.937Z,0
2023-03-23T21:33:55.035Z,0
2023-03-23T21:38:59.234Z,0
2023-03-23T21:44:03.362Z,0
2023-03-23T21:49:07.542Z,0
2023-03-23T21:54:11.749Z,0
2023-03-23T21:59:15.841Z,0
2023-03-23T22:04:19.997Z,0
2023-03-23T22:09:24.145Z,0
2023-03-23T22:14:28.329Z,0
2023-03-23T22:19:32.455Z,0
2023-03-23T22:24:36.608Z,0
2023-03-23T22:29:40.794Z,0
2023-03-23T22:34:44.933Z,0
2023-03-23T22:39:47.234Z,0
2023-03-23T22:49:55.566Z,0
2023-03-23T22:54:59.697Z,0
2023-03-23T23:00:03.912Z,0
2023-03-23T23:05:08.035Z,0
2023-03-23T23:10:12.201Z,0
2023-03-23T23:15:16.374Z,0
2023-03-23T23:20:20.503Z,0
2023-03-23T23:25:24.690Z,0
2023-03-23T23:30:28.907Z,0
2023-03-23T23:35:33.065Z,0
2023-03-23T23:40:37.193Z,0
2023-03-23T23:45:41.367Z,0
2023-03-23T23:50:45.794Z,0
2023-03-23T23:55:49.760Z,0
